Aviation Digital Data Service (ADDS)

Output produced by METARs form (0750 UTC 23 February 2019)
found at http://www.aviationweather.gov/metar/data/
 
METAR text: EPPO 230730Z 15001KT CAVOK M05/M08 Q1046
Conditions at: EPPO (POZNAN/LAWICA , PL) observed 0730 UTC 23 February 2019
Temperature: -5.0°C (23°F)
Dewpoint: -8.0°C (18°F) [RH = 79%]
Pressure (altimeter): 30.89 inches Hg (1046.0 mb)
Winds: from the SSE (150 degrees) at 1 MPH (1 knots; 0.5 m/s)
Visibility: 6 or more miles (10+ km)
Ceiling: ceiling and visibility are OK
Clouds: unknown
Weather: no significant weather observed at this time

METAR text: EPPO 230700Z 00000KT CAVOK M05/M07 Q1046
Conditions at: EPPO (POZNAN/LAWICA , PL) observed 0700 UTC 23 February 2019
Temperature: -5.0°C (23°F)
Dewpoint: -7.0°C (19°F) [RH = 86%]
Pressure (altimeter): 30.89 inches Hg (1046.0 mb)
Winds: calm
Visibility: 6 or more miles (10+ km)
Ceiling: ceiling and visibility are OK
Clouds: unknown
Weather: no significant weather observed at this time

Forecast for: EPPO (POZNAN/LAWICA , PL)
Text: TAF EPPO 230530Z 2306/2406 VRB02KT CAVOK
Forecast period: 0600 to 2200 UTC 23 February 2019
Forecast type: FROM: standard forecast or significant change
Winds: variable direction winds at 2 MPH (2 knots; 1.0 m/s)
Visibility: 6 or more miles 10+ km)
Ceiling: unknown
Clouds: missing
Weather: NSW  (no significant weather)
Text: BECMG 2322/2324 25010KT
Forecast period: 2200 UTC 23 February 2019 to 0600 UTC 24 February 2019
Forecast type: BECOMING: Conditions expected to become as follows by 0000 UTC 24 February 2019
Winds: from the WSW (250 degrees) at 12 MPH (10 knots; 5.1 m/s)
Visibility: 6 or more miles 10+ km)
Ceiling: unknown
Clouds: missing
Weather: NSW  (no significant weather)